sensor_id;sensor_type;location;lat;lon;timestamp;P1;durP1;ratioP1;P2;durP2;ratioP2
34505;SDS011;20748;42.632;23.198;2023-06-04T00:01:27;5.85;;;3.10;;
34505;SDS011;20748;42.632;23.198;2023-06-04T00:04:00;6.00;;;3.67;;
34505;SDS011;20748;42.632;23.198;2023-06-04T00:06:33;9.43;;;3.38;;
34505;SDS011;20748;42.632;23.198;2023-06-04T00:09:07;6.22;;;3.42;;
34505;SDS011;20748;42.632;23.198;2023-06-04T00:11:39;5.15;;;2.92;;
34505;SDS011;20748;42.632;23.198;2023-06-04T00:14:12;4.68;;;2.80;;
34505;SDS011;20748;42.632;23.198;2023-06-04T00:16:45;5.72;;;3.60;;
34505;SDS011;20748;42.632;23.198;2023-06-04T00:19:18;7.95;;;3.67;;
34505;SDS011;20748;42.632;23.198;2023-06-04T00:21:50;7.57;;;3.63;;
34505;SDS011;20748;42.632;23.198;2023-06-04T00:24:23;5.32;;;2.85;;
34505;SDS011;20748;42.632;23.198;2023-06-04T00:26:55;7.68;;;3.40;;
34505;SDS011;20748;42.632;23.198;2023-06-04T00:29:27;9.93;;;2.97;;
34505;SDS011;20748;42.632;23.198;2023-06-04T00:32:01;9.13;;;3.55;;
34505;SDS011;20748;42.632;23.198;2023-06-04T00:34:34;6.00;;;3.38;;
34505;SDS011;20748;42.632;23.198;2023-06-04T00:37:06;8.93;;;3.40;;
34505;SDS011;20748;42.632;23.198;2023-06-04T00:39:39;8.73;;;4.22;;
34505;SDS011;20748;42.632;23.198;2023-06-04T00:42:11;5.72;;;3.25;;
34505;SDS011;20748;42.632;23.198;2023-06-04T00:44:43;6.43;;;3.72;;
34505;SDS011;20748;42.632;23.198;2023-06-04T00:47:18;7.35;;;4.05;;
34505;SDS011;20748;42.632;23.198;2023-06-04T00:49:53;12.90;;;4.20;;
34505;SDS011;20748;42.632;23.198;2023-06-04T00:52:29;9.30;;;4.03;;
34505;SDS011;20748;42.632;23.198;2023-06-04T00:55:02;7.88;;;4.45;;
34505;SDS011;20748;42.632;23.198;2023-06-04T00:57:35;10.48;;;5.05;;
34505;SDS011;20748;42.632;23.198;2023-06-04T01:00:07;7.47;;;4.45;;
34505;SDS011;20748;42.632;23.198;2023-06-04T01:02:41;9.50;;;4.80;;
34505;SDS011;20748;42.632;23.198;2023-06-04T01:05:18;12.98;;;6.68;;
34505;SDS011;20748;42.632;23.198;2023-06-04T01:08:00;16.52;;;7.97;;
34505;SDS011;20748;42.632;23.198;2023-06-04T01:10:33;18.23;;;9.07;;
34505;SDS011;20748;42.632;23.198;2023-06-04T01:13:06;17.70;;;7.88;;
34505;SDS011;20748;42.632;23.198;2023-06-04T01:15:38;16.75;;;7.32;;
34505;SDS011;20748;42.632;23.198;2023-06-04T01:18:11;15.85;;;8.10;;
34505;SDS011;20748;42.632;23.198;2023-06-04T01:20:59;15.50;;;7.90;;
34505;SDS011;20748;42.632;23.198;2023-06-04T01:23:36;15.20;;;7.50;;
34505;SDS011;20748;42.632;23.198;2023-06-04T01:26:17;18.33;;;8.63;;
34505;SDS011;20748;42.632;23.198;2023-06-04T01:28:49;20.23;;;9.23;;
34505;SDS011;20748;42.632;23.198;2023-06-04T01:31:23;16.02;;;7.18;;
34505;SDS011;20748;42.632;23.198;2023-06-04T01:33:59;14.70;;;7.32;;
34505;SDS011;20748;42.632;23.198;2023-06-04T01:36:31;17.75;;;7.85;;
34505;SDS011;20748;42.632;23.198;2023-06-04T01:39:03;16.98;;;8.35;;
34505;SDS011;20748;42.632;23.198;2023-06-04T01:41:36;16.05;;;8.98;;
34505;SDS011;20748;42.632;23.198;2023-06-04T01:44:09;13.40;;;7.78;;
34505;SDS011;20748;42.632;23.198;2023-06-04T01:46:41;13.55;;;8.02;;
34505;SDS011;20748;42.632;23.198;2023-06-04T01:49:14;18.88;;;9.10;;
34505;SDS011;20748;42.632;23.198;2023-06-04T01:51:47;15.65;;;8.10;;
34505;SDS011;20748;42.632;23.198;2023-06-04T01:54:19;12.75;;;7.60;;
34505;SDS011;20748;42.632;23.198;2023-06-04T01:56:51;14.55;;;7.63;;
34505;SDS011;20748;42.632;23.198;2023-06-04T01:59:24;13.30;;;8.02;;
34505;SDS011;20748;42.632;23.198;2023-06-04T02:01:58;14.90;;;7.95;;
34505;SDS011;20748;42.632;23.198;2023-06-04T02:04:33;15.10;;;6.80;;
34505;SDS011;20748;42.632;23.198;2023-06-04T02:07:08;27.60;;;12.68;;
34505;SDS011;20748;42.632;23.198;2023-06-04T02:09:41;14.52;;;8.05;;
34505;SDS011;20748;42.632;23.198;2023-06-04T02:12:13;10.27;;;5.45;;
34505;SDS011;20748;42.632;23.198;2023-06-04T02:14:45;9.85;;;6.20;;
34505;SDS011;20748;42.632;23.198;2023-06-04T02:17:18;9.90;;;5.25;;
34505;SDS011;20748;42.632;23.198;2023-06-04T02:19:51;9.13;;;5.57;;
34505;SDS011;20748;42.632;23.198;2023-06-04T02:22:24;7.97;;;4.25;;
34505;SDS011;20748;42.632;23.198;2023-06-04T02:24:57;8.98;;;4.75;;
34505;SDS011;20748;42.632;23.198;2023-06-04T02:27:29;12.23;;;5.47;;
34505;SDS011;20748;42.632;23.198;2023-06-04T02:30:02;8.93;;;6.00;;
34505;SDS011;20748;42.632;23.198;2023-06-04T02:32:35;10.60;;;6.07;;
34505;SDS011;20748;42.632;23.198;2023-06-04T02:35:08;10.82;;;6.35;;
34505;SDS011;20748;42.632;23.198;2023-06-04T02:37:41;13.48;;;6.60;;
34505;SDS011;20748;42.632;23.198;2023-06-04T02:40:14;13.00;;;6.47;;
34505;SDS011;20748;42.632;23.198;2023-06-04T02:42:46;11.65;;;6.30;;
34505;SDS011;20748;42.632;23.198;2023-06-04T02:45:19;12.38;;;6.07;;
34505;SDS011;20748;42.632;23.198;2023-06-04T02:47:52;9.70;;;5.35;;
34505;SDS011;20748;42.632;23.198;2023-06-04T02:50:25;9.13;;;5.10;;
34505;SDS011;20748;42.632;23.198;2023-06-04T02:52:57;8.60;;;3.58;;
34505;SDS011;20748;42.632;23.198;2023-06-04T02:55:30;5.95;;;3.10;;
34505;SDS011;20748;42.632;23.198;2023-06-04T02:58:02;5.32;;;2.95;;
34505;SDS011;20748;42.632;23.198;2023-06-04T03:00:34;7.07;;;3.67;;
34505;SDS011;20748;42.632;23.198;2023-06-04T03:03:07;6.25;;;4.10;;
34505;SDS011;20748;42.632;23.198;2023-06-04T03:05:41;7.32;;;4.28;;
34505;SDS011;20748;42.632;23.198;2023-06-04T03:08:14;8.52;;;5.00;;
34505;SDS011;20748;42.632;23.198;2023-06-04T03:10:47;7.10;;;3.85;;
34505;SDS011;20748;42.632;23.198;2023-06-04T03:13:19;7.50;;;4.13;;
34505;SDS011;20748;42.632;23.198;2023-06-04T03:15:52;7.75;;;4.38;;
34505;SDS011;20748;42.632;23.198;2023-06-04T03:18:26;7.35;;;3.65;;
34505;SDS011;20748;42.632;23.198;2023-06-04T03:21:00;7.10;;;3.30;;
34505;SDS011;20748;42.632;23.198;2023-06-04T03:23:32;7.80;;;3.85;;
34505;SDS011;20748;42.632;23.198;2023-06-04T03:26:05;6.30;;;2.53;;
34505;SDS011;20748;42.632;23.198;2023-06-04T03:28:38;7.45;;;3.38;;
34505;SDS011;20748;42.632;23.198;2023-06-04T03:31:10;6.18;;;3.42;;
34505;SDS011;20748;42.632;23.198;2023-06-04T03:33:44;7.03;;;2.88;;
34505;SDS011;20748;42.632;23.198;2023-06-04T03:36:17;5.18;;;2.75;;
34505;SDS011;20748;42.632;23.198;2023-06-04T03:38:50;4.80;;;2.97;;
34505;SDS011;20748;42.632;23.198;2023-06-04T03:41:22;4.38;;;2.60;;
34505;SDS011;20748;42.632;23.198;2023-06-04T03:43:55;3.95;;;2.50;;
34505;SDS011;20748;42.632;23.198;2023-06-04T03:46:28;5.00;;;2.40;;
34505;SDS011;20748;42.632;23.198;2023-06-04T03:49:03;3.83;;;2.10;;
34505;SDS011;20748;42.632;23.198;2023-06-04T03:51:36;5.45;;;2.88;;
34505;SDS011;20748;42.632;23.198;2023-06-04T03:54:10;4.50;;;2.92;;
34505;SDS011;20748;42.632;23.198;2023-06-04T03:56:44;4.57;;;2.42;;
34505;SDS011;20748;42.632;23.198;2023-06-04T03:59:17;4.22;;;2.42;;
34505;SDS011;20748;42.632;23.198;2023-06-04T04:01:50;4.15;;;2.50;;
34505;SDS011;20748;42.632;23.198;2023-06-04T04:04:23;5.47;;;2.85;;
34505;SDS011;20748;42.632;23.198;2023-06-04T04:06:56;3.78;;;2.05;;
34505;SDS011;20748;42.632;23.198;2023-06-04T04:09:28;4.65;;;2.80;;
34505;SDS011;20748;42.632;23.198;2023-06-04T04:12:01;5.75;;;3.00;;
34505;SDS011;20748;42.632;23.198;2023-06-04T04:14:34;4.88;;;2.83;;
34505;SDS011;20748;42.632;23.198;2023-06-04T04:17:07;5.15;;;3.40;;
34505;SDS011;20748;42.632;23.198;2023-06-04T04:19:40;4.15;;;2.88;;
34505;SDS011;20748;42.632;23.198;2023-06-04T04:22:13;6.32;;;3.13;;
34505;SDS011;20748;42.632;23.198;2023-06-04T04:24:49;6.18;;;3.22;;
34505;SDS011;20748;42.632;23.198;2023-06-04T04:27:22;3.90;;;2.28;;
34505;SDS011;20748;42.632;23.198;2023-06-04T04:29:54;6.07;;;3.47;;
34505;SDS011;20748;42.632;23.198;2023-06-04T04:32:34;5.10;;;2.90;;
34505;SDS011;20748;42.632;23.198;2023-06-04T04:35:12;5.32;;;3.50;;
34505;SDS011;20748;42.632;23.198;2023-06-04T04:37:45;5.15;;;2.92;;
34505;SDS011;20748;42.632;23.198;2023-06-04T04:40:20;8.65;;;3.97;;
34505;SDS011;20748;42.632;23.198;2023-06-04T04:42:54;5.45;;;3.30;;
34505;SDS011;20748;42.632;23.198;2023-06-04T04:45:26;5.95;;;3.72;;
34505;SDS011;20748;42.632;23.198;2023-06-04T04:48:02;4.45;;;3.03;;
34505;SDS011;20748;42.632;23.198;2023-06-04T04:50:35;5.75;;;3.42;;
34505;SDS011;20748;42.632;23.198;2023-06-04T04:53:09;7.68;;;4.28;;
34505;SDS011;20748;42.632;23.198;2023-06-04T04:55:43;7.20;;;3.65;;
34505;SDS011;20748;42.632;23.198;2023-06-04T04:58:16;10.63;;;4.47;;
34505;SDS011;20748;42.632;23.198;2023-06-04T05:00:49;7.25;;;4.22;;
34505;SDS011;20748;42.632;23.198;2023-06-04T05:03:21;6.75;;;4.55;;
34505;SDS011;20748;42.632;23.198;2023-06-04T05:05:54;7.05;;;4.20;;
34505;SDS011;20748;42.632;23.198;2023-06-04T05:08:27;6.28;;;3.55;;
34505;SDS011;20748;42.632;23.198;2023-06-04T05:11:00;6.65;;;3.80;;
34505;SDS011;20748;42.632;23.198;2023-06-04T05:13:33;6.85;;;4.13;;
34505;SDS011;20748;42.632;23.198;2023-06-04T05:16:08;6.78;;;3.88;;
34505;SDS011;20748;42.632;23.198;2023-06-04T05:18:44;6.55;;;4.20;;
34505;SDS011;20748;42.632;23.198;2023-06-04T05:21:20;6.22;;;3.92;;
34505;SDS011;20748;42.632;23.198;2023-06-04T05:23:59;5.13;;;3.58;;
34505;SDS011;20748;42.632;23.198;2023-06-04T05:26:36;7.75;;;4.70;;
34505;SDS011;20748;42.632;23.198;2023-06-04T05:29:17;7.38;;;4.25;;
34505;SDS011;20748;42.632;23.198;2023-06-04T05:31:51;8.63;;;4.63;;
34505;SDS011;20748;42.632;23.198;2023-06-04T05:34:26;7.05;;;4.10;;
34505;SDS011;20748;42.632;23.198;2023-06-04T05:37:00;7.25;;;3.90;;
34505;SDS011;20748;42.632;23.198;2023-06-04T05:39:36;7.70;;;4.50;;
34505;SDS011;20748;42.632;23.198;2023-06-04T05:42:14;8.37;;;5.20;;
34505;SDS011;20748;42.632;23.198;2023-06-04T05:44:47;10.88;;;5.30;;
34505;SDS011;20748;42.632;23.198;2023-06-04T05:47:21;7.05;;;4.43;;
34505;SDS011;20748;42.632;23.198;2023-06-04T05:49:54;8.07;;;4.93;;
34505;SDS011;20748;42.632;23.198;2023-06-04T05:52:26;6.80;;;4.45;;
34505;SDS011;20748;42.632;23.198;2023-06-04T05:54:59;8.80;;;4.97;;
34505;SDS011;20748;42.632;23.198;2023-06-04T05:57:32;7.10;;;4.35;;
34505;SDS011;20748;42.632;23.198;2023-06-04T06:00:05;8.25;;;5.05;;
34505;SDS011;20748;42.632;23.198;2023-06-04T06:02:45;6.93;;;4.55;;
34505;SDS011;20748;42.632;23.198;2023-06-04T06:05:33;8.68;;;5.43;;
34505;SDS011;20748;42.632;23.198;2023-06-04T06:08:05;8.77;;;5.43;;
34505;SDS011;20748;42.632;23.198;2023-06-04T06:10:39;9.38;;;5.32;;
34505;SDS011;20748;42.632;23.198;2023-06-04T06:13:12;7.15;;;4.38;;
34505;SDS011;20748;42.632;23.198;2023-06-04T06:15:45;8.32;;;4.10;;
34505;SDS011;20748;42.632;23.198;2023-06-04T06:18:18;7.07;;;4.45;;
34505;SDS011;20748;42.632;23.198;2023-06-04T06:20:50;13.15;;;5.75;;
34505;SDS011;20748;42.632;23.198;2023-06-04T06:23:23;8.50;;;5.65;;
34505;SDS011;20748;42.632;23.198;2023-06-04T06:25:56;9.65;;;4.72;;
34505;SDS011;20748;42.632;23.198;2023-06-04T06:28:34;8.07;;;5.65;;
34505;SDS011;20748;42.632;23.198;2023-06-04T06:31:08;7.43;;;4.72;;
34505;SDS011;20748;42.632;23.198;2023-06-04T06:33:41;11.05;;;5.30;;
34505;SDS011;20748;42.632;23.198;2023-06-04T06:36:13;8.13;;;5.40;;
34505;SDS011;20748;42.632;23.198;2023-06-04T06:38:50;8.30;;;4.57;;
34505;SDS011;20748;42.632;23.198;2023-06-04T06:41:23;9.98;;;5.68;;
34505;SDS011;20748;42.632;23.198;2023-06-04T06:43:55;7.50;;;4.63;;
34505;SDS011;20748;42.632;23.198;2023-06-04T06:46:27;12.15;;;6.47;;
34505;SDS011;20748;42.632;23.198;2023-06-04T06:49:00;11.27;;;6.32;;
34505;SDS011;20748;42.632;23.198;2023-06-04T06:51:33;8.73;;;5.65;;
34505;SDS011;20748;42.632;23.198;2023-06-04T06:54:05;10.80;;;6.25;;
34505;SDS011;20748;42.632;23.198;2023-06-04T06:56:41;10.25;;;6.50;;
34505;SDS011;20748;42.632;23.198;2023-06-04T06:59:13;10.98;;;5.70;;
34505;SDS011;20748;42.632;23.198;2023-06-04T07:01:45;10.80;;;6.43;;
34505;SDS011;20748;42.632;23.198;2023-06-04T07:04:18;10.43;;;6.53;;
34505;SDS011;20748;42.632;23.198;2023-06-04T07:06:51;11.60;;;5.75;;
34505;SDS011;20748;42.632;23.198;2023-06-04T07:09:23;11.00;;;6.25;;
34505;SDS011;20748;42.632;23.198;2023-06-04T07:11:56;10.52;;;5.60;;
34505;SDS011;20748;42.632;23.198;2023-06-04T07:14:29;8.32;;;5.82;;
34505;SDS011;20748;42.632;23.198;2023-06-04T07:17:01;6.88;;;4.90;;
34505;SDS011;20748;42.632;23.198;2023-06-04T07:19:34;8.63;;;5.63;;
34505;SDS011;20748;42.632;23.198;2023-06-04T07:22:07;9.48;;;5.30;;
34505;SDS011;20748;42.632;23.198;2023-06-04T07:24:39;11.57;;;6.82;;
34505;SDS011;20748;42.632;23.198;2023-06-04T07:27:12;10.90;;;5.68;;
34505;SDS011;20748;42.632;23.198;2023-06-04T07:29:45;8.90;;;5.32;;
34505;SDS011;20748;42.632;23.198;2023-06-04T07:32:18;9.40;;;6.25;;
34505;SDS011;20748;42.632;23.198;2023-06-04T07:34:50;9.75;;;6.32;;
34505;SDS011;20748;42.632;23.198;2023-06-04T07:37:23;8.50;;;6.07;;
34505;SDS011;20748;42.632;23.198;2023-06-04T07:39:55;10.25;;;5.72;;
34505;SDS011;20748;42.632;23.198;2023-06-04T07:42:28;12.65;;;5.95;;
34505;SDS011;20748;42.632;23.198;2023-06-04T07:45:01;10.85;;;6.40;;
34505;SDS011;20748;42.632;23.198;2023-06-04T07:47:35;9.40;;;6.18;;
34505;SDS011;20748;42.632;23.198;2023-06-04T07:50:08;9.70;;;5.97;;
34505;SDS011;20748;42.632;23.198;2023-06-04T07:52:40;9.68;;;5.85;;
34505;SDS011;20748;42.632;23.198;2023-06-04T07:55:13;8.65;;;5.82;;
34505;SDS011;20748;42.632;23.198;2023-06-04T07:57:46;10.75;;;5.90;;
34505;SDS011;20748;42.632;23.198;2023-06-04T08:00:18;8.65;;;5.43;;
34505;SDS011;20748;42.632;23.198;2023-06-04T08:02:51;10.38;;;6.68;;
34505;SDS011;20748;42.632;23.198;2023-06-04T08:05:24;9.30;;;6.13;;
34505;SDS011;20748;42.632;23.198;2023-06-04T08:07:56;9.30;;;6.05;;
34505;SDS011;20748;42.632;23.198;2023-06-04T08:10:28;12.13;;;5.03;;
34505;SDS011;20748;42.632;23.198;2023-06-04T08:13:02;7.47;;;4.70;;
34505;SDS011;20748;42.632;23.198;2023-06-04T08:15:34;8.35;;;5.05;;
34505;SDS011;20748;42.632;23.198;2023-06-04T08:18:26;8.90;;;5.18;;
34505;SDS011;20748;42.632;23.198;2023-06-04T08:21:13;8.70;;;5.38;;
34505;SDS011;20748;42.632;23.198;2023-06-04T08:24:03;12.93;;;6.47;;
34505;SDS011;20748;42.632;23.198;2023-06-04T08:26:56;13.70;;;6.20;;
34505;SDS011;20748;42.632;23.198;2023-06-04T08:29:37;9.35;;;5.80;;
34505;SDS011;20748;42.632;23.198;2023-06-04T08:32:14;8.50;;;5.20;;
34505;SDS011;20748;42.632;23.198;2023-06-04T08:34:57;7.47;;;4.88;;
34505;SDS011;20748;42.632;23.198;2023-06-04T08:37:30;10.27;;;5.80;;
34505;SDS011;20748;42.632;23.198;2023-06-04T08:40:03;8.93;;;6.05;;
34505;SDS011;20748;42.632;23.198;2023-06-04T08:42:38;9.60;;;6.40;;
34505;SDS011;20748;42.632;23.198;2023-06-04T08:45:14;10.98;;;5.90;;
34505;SDS011;20748;42.632;23.198;2023-06-04T08:47:48;8.27;;;5.30;;
34505;SDS011;20748;42.632;23.198;2023-06-04T08:50:22;9.70;;;6.65;;
34505;SDS011;20748;42.632;23.198;2023-06-04T08:52:55;10.70;;;6.00;;
34505;SDS011;20748;42.632;23.198;2023-06-04T08:55:28;8.15;;;5.57;;
34505;SDS011;20748;42.632;23.198;2023-06-04T08:58:01;9.02;;;6.15;;
34505;SDS011;20748;42.632;23.198;2023-06-04T09:00:35;8.63;;;5.43;;
34505;SDS011;20748;42.632;23.198;2023-06-04T09:03:08;10.48;;;5.70;;
34505;SDS011;20748;42.632;23.198;2023-06-04T09:05:42;8.32;;;5.38;;
34505;SDS011;20748;42.632;23.198;2023-06-04T09:08:19;9.77;;;5.90;;
34505;SDS011;20748;42.632;23.198;2023-06-04T09:10:53;8.25;;;5.30;;
34505;SDS011;20748;42.632;23.198;2023-06-04T09:13:27;13.98;;;6.25;;
34505;SDS011;20748;42.632;23.198;2023-06-04T09:16:04;11.98;;;6.85;;
34505;SDS011;20748;42.632;23.198;2023-06-04T09:18:37;12.40;;;6.22;;
34505;SDS011;20748;42.632;23.198;2023-06-04T09:21:10;12.95;;;7.43;;
34505;SDS011;20748;42.632;23.198;2023-06-04T09:23:46;11.55;;;7.18;;
34505;SDS011;20748;42.632;23.198;2023-06-04T09:26:19;15.13;;;7.47;;
34505;SDS011;20748;42.632;23.198;2023-06-04T09:28:52;13.07;;;6.28;;
34505;SDS011;20748;42.632;23.198;2023-06-04T09:31:28;12.50;;;7.25;;
34505;SDS011;20748;42.632;23.198;2023-06-04T09:34:07;12.35;;;7.22;;
34505;SDS011;20748;42.632;23.198;2023-06-04T09:36:39;13.13;;;6.43;;
34505;SDS011;20748;42.632;23.198;2023-06-04T09:39:15;9.18;;;5.90;;
34505;SDS011;20748;42.632;23.198;2023-06-04T09:41:56;12.35;;;6.70;;
34505;SDS011;20748;42.632;23.198;2023-06-04T09:44:30;11.80;;;6.25;;
34505;SDS011;20748;42.632;23.198;2023-06-04T09:47:03;11.15;;;6.05;;
34505;SDS011;20748;42.632;23.198;2023-06-04T09:49:40;9.52;;;5.80;;
34505;SDS011;20748;42.632;23.198;2023-06-04T09:52:13;9.50;;;6.70;;
34505;SDS011;20748;42.632;23.198;2023-06-04T09:54:46;10.90;;;6.40;;
34505;SDS011;20748;42.632;23.198;2023-06-04T09:57:18;10.02;;;6.57;;
34505;SDS011;20748;42.632;23.198;2023-06-04T09:59:53;9.05;;;5.30;;
34505;SDS011;20748;42.632;23.198;2023-06-04T10:02:28;11.88;;;6.22;;
34505;SDS011;20748;42.632;23.198;2023-06-04T10:05:02;11.15;;;6.00;;
34505;SDS011;20748;42.632;23.198;2023-06-04T10:07:40;11.98;;;6.72;;
34505;SDS011;20748;42.632;23.198;2023-06-04T10:10:16;12.88;;;6.65;;
34505;SDS011;20748;42.632;23.198;2023-06-04T10:12:50;12.52;;;6.00;;
34505;SDS011;20748;42.632;23.198;2023-06-04T10:15:26;10.18;;;5.63;;
34505;SDS011;20748;42.632;23.198;2023-06-04T10:18:02;10.45;;;6.45;;
34505;SDS011;20748;42.632;23.198;2023-06-04T10:20:35;9.63;;;5.68;;
34505;SDS011;20748;42.632;23.198;2023-06-04T10:23:08;10.68;;;6.63;;
34505;SDS011;20748;42.632;23.198;2023-06-04T10:25:40;11.07;;;6.40;;
34505;SDS011;20748;42.632;23.198;2023-06-04T10:28:13;9.88;;;6.43;;
34505;SDS011;20748;42.632;23.198;2023-06-04T10:30:47;8.55;;;5.40;;
34505;SDS011;20748;42.632;23.198;2023-06-04T10:33:22;29.45;;;26.63;;
34505;SDS011;20748;42.632;23.198;2023-06-04T10:35:56;13.23;;;9.60;;
34505;SDS011;20748;42.632;23.198;2023-06-04T10:38:28;9.20;;;6.20;;
34505;SDS011;20748;42.632;23.198;2023-06-04T10:41:10;12.93;;;7.28;;
34505;SDS011;20748;42.632;23.198;2023-06-04T10:43:45;10.90;;;7.43;;
34505;SDS011;20748;42.632;23.198;2023-06-04T10:46:20;9.18;;;5.70;;
34505;SDS011;20748;42.632;23.198;2023-06-04T10:48:54;9.30;;;6.20;;
34505;SDS011;20748;42.632;23.198;2023-06-04T10:51:29;9.65;;;5.68;;
34505;SDS011;20748;42.632;23.198;2023-06-04T10:54:02;9.82;;;5.85;;
34505;SDS011;20748;42.632;23.198;2023-06-04T10:56:35;11.75;;;6.30;;
34505;SDS011;20748;42.632;23.198;2023-06-04T10:59:14;9.77;;;6.28;;
34505;SDS011;20748;42.632;23.198;2023-06-04T11:01:47;13.50;;;7.05;;
34505;SDS011;20748;42.632;23.198;2023-06-04T11:04:21;9.75;;;5.90;;
34505;SDS011;20748;42.632;23.198;2023-06-04T11:07:01;10.00;;;6.07;;
34505;SDS011;20748;42.632;23.198;2023-06-04T11:09:34;9.93;;;6.60;;
34505;SDS011;20748;42.632;23.198;2023-06-04T11:12:07;10.70;;;6.72;;
34505;SDS011;20748;42.632;23.198;2023-06-04T11:14:40;9.70;;;6.43;;
34505;SDS011;20748;42.632;23.198;2023-06-04T11:17:13;7.38;;;5.40;;
34505;SDS011;20748;42.632;23.198;2023-06-04T11:19:46;10.55;;;6.95;;
34505;SDS011;20748;42.632;23.198;2023-06-04T11:22:19;9.27;;;6.45;;
34505;SDS011;20748;42.632;23.198;2023-06-04T11:24:55;8.38;;;5.72;;
34505;SDS011;20748;42.632;23.198;2023-06-04T11:27:28;8.38;;;5.57;;
34505;SDS011;20748;42.632;23.198;2023-06-04T11:30:08;11.80;;;6.20;;
34505;SDS011;20748;42.632;23.198;2023-06-04T11:32:43;10.35;;;7.25;;
34505;SDS011;20748;42.632;23.198;2023-06-04T11:35:16;10.02;;;6.10;;
34505;SDS011;20748;42.632;23.198;2023-06-04T11:37:55;8.10;;;5.63;;
34505;SDS011;20748;42.632;23.198;2023-06-04T11:40:28;9.07;;;5.78;;
34505;SDS011;20748;42.632;23.198;2023-06-04T11:43:02;8.52;;;5.57;;
34505;SDS011;20748;42.632;23.198;2023-06-04T11:45:34;7.95;;;5.32;;
34505;SDS011;20748;42.632;23.198;2023-06-04T11:48:10;8.07;;;5.28;;
34505;SDS011;20748;42.632;23.198;2023-06-04T11:50:43;10.05;;;5.60;;
34505;SDS011;20748;42.632;23.198;2023-06-04T11:53:16;7.28;;;4.88;;
34505;SDS011;20748;42.632;23.198;2023-06-04T11:55:49;10.77;;;5.85;;
34505;SDS011;20748;42.632;23.198;2023-06-04T11:58:21;9.77;;;5.88;;
34505;SDS011;20748;42.632;23.198;2023-06-04T12:00:55;14.80;;;7.30;;
34505;SDS011;20748;42.632;23.198;2023-06-04T12:03:33;10.65;;;5.78;;
34505;SDS011;20748;42.632;23.198;2023-06-04T12:06:09;7.57;;;5.88;;
34505;SDS011;20748;42.632;23.198;2023-06-04T12:08:46;10.02;;;5.47;;
34505;SDS011;20748;42.632;23.198;2023-06-04T12:11:23;13.18;;;5.85;;
34505;SDS011;20748;42.632;23.198;2023-06-04T12:13:58;8.03;;;4.80;;
34505;SDS011;20748;42.632;23.198;2023-06-04T12:16:33;10.73;;;5.30;;
34505;SDS011;20748;42.632;23.198;2023-06-04T12:19:06;6.82;;;4.78;;
34505;SDS011;20748;42.632;23.198;2023-06-04T12:21:40;8.27;;;5.03;;
34505;SDS011;20748;42.632;23.198;2023-06-04T12:24:14;8.38;;;5.43;;
34505;SDS011;20748;42.632;23.198;2023-06-04T12:26:47;6.80;;;5.13;;
34505;SDS011;20748;42.632;23.198;2023-06-04T12:29:20;6.82;;;5.10;;
34505;SDS011;20748;42.632;23.198;2023-06-04T12:32:00;8.65;;;4.85;;
34505;SDS011;20748;42.632;23.198;2023-06-04T12:34:34;7.40;;;5.30;;
34505;SDS011;20748;42.632;23.198;2023-06-04T12:37:08;7.40;;;5.38;;
34505;SDS011;20748;42.632;23.198;2023-06-04T12:39:40;7.32;;;5.28;;
34505;SDS011;20748;42.632;23.198;2023-06-04T12:42:12;8.65;;;5.53;;
34505;SDS011;20748;42.632;23.198;2023-06-04T12:44:45;8.07;;;5.78;;
34505;SDS011;20748;42.632;23.198;2023-06-04T12:47:17;9.43;;;6.20;;
34505;SDS011;20748;42.632;23.198;2023-06-04T12:49:50;8.13;;;5.68;;
34505;SDS011;20748;42.632;23.198;2023-06-04T12:52:24;11.07;;;5.90;;
34505;SDS011;20748;42.632;23.198;2023-06-04T12:54:57;8.48;;;6.82;;
34505;SDS011;20748;42.632;23.198;2023-06-04T12:57:29;9.07;;;6.38;;
34505;SDS011;20748;42.632;23.198;2023-06-04T13:00:02;9.57;;;5.75;;
34505;SDS011;20748;42.632;23.198;2023-06-04T13:02:36;9.70;;;6.97;;
34505;SDS011;20748;42.632;23.198;2023-06-04T13:05:08;7.82;;;5.75;;
34505;SDS011;20748;42.632;23.198;2023-06-04T13:07:41;8.95;;;5.88;;
34505;SDS011;20748;42.632;23.198;2023-06-04T13:10:14;7.85;;;5.30;;
34505;SDS011;20748;42.632;23.198;2023-06-04T13:12:46;8.35;;;5.45;;
34505;SDS011;20748;42.632;23.198;2023-06-04T13:15:18;8.77;;;5.75;;
34505;SDS011;20748;42.632;23.198;2023-06-04T13:17:51;7.63;;;5.35;;
34505;SDS011;20748;42.632;23.198;2023-06-04T13:20:23;8.55;;;6.50;;
34505;SDS011;20748;42.632;23.198;2023-06-04T13:22:56;12.30;;;6.82;;
34505;SDS011;20748;42.632;23.198;2023-06-04T13:25:29;9.82;;;6.25;;
34505;SDS011;20748;42.632;23.198;2023-06-04T13:28:04;8.48;;;5.53;;
34505;SDS011;20748;42.632;23.198;2023-06-04T13:30:37;10.32;;;6.38;;
34505;SDS011;20748;42.632;23.198;2023-06-04T13:33:10;8.88;;;6.65;;
34505;SDS011;20748;42.632;23.198;2023-06-04T13:35:42;9.43;;;7.10;;
34505;SDS011;20748;42.632;23.198;2023-06-04T13:38:16;9.77;;;5.80;;
34505;SDS011;20748;42.632;23.198;2023-06-04T13:40:48;11.05;;;6.80;;
34505;SDS011;20748;42.632;23.198;2023-06-04T13:43:21;8.48;;;6.18;;
34505;SDS011;20748;42.632;23.198;2023-06-04T13:45:53;9.02;;;6.05;;
34505;SDS011;20748;42.632;23.198;2023-06-04T13:48:26;10.02;;;6.82;;
34505;SDS011;20748;42.632;23.198;2023-06-04T13:50:59;9.50;;;6.70;;
34505;SDS011;20748;42.632;23.198;2023-06-04T13:53:34;10.02;;;6.60;;
34505;SDS011;20748;42.632;23.198;2023-06-04T13:56:06;7.32;;;6.35;;
34505;SDS011;20748;42.632;23.198;2023-06-04T13:58:38;10.10;;;6.53;;
34505;SDS011;20748;42.632;23.198;2023-06-04T14:01:11;9.70;;;6.45;;
34505;SDS011;20748;42.632;23.198;2023-06-04T14:03:43;9.40;;;7.50;;
34505;SDS011;20748;42.632;23.198;2023-06-04T14:06:16;9.18;;;6.70;;
34505;SDS011;20748;42.632;23.198;2023-06-04T14:08:49;10.60;;;7.60;;
34505;SDS011;20748;42.632;23.198;2023-06-04T14:11:21;14.77;;;7.90;;
34505;SDS011;20748;42.632;23.198;2023-06-04T14:13:54;8.93;;;6.15;;
34505;SDS011;20748;42.632;23.198;2023-06-04T14:16:26;14.45;;;9.55;;
34505;SDS011;20748;42.632;23.198;2023-06-04T14:18:59;8.73;;;6.18;;
34505;SDS011;20748;42.632;23.198;2023-06-04T14:21:32;8.48;;;4.65;;
34505;SDS011;20748;42.632;23.198;2023-06-04T14:24:05;13.63;;;6.47;;
34505;SDS011;20748;42.632;23.198;2023-06-04T14:26:38;10.13;;;7.50;;
34505;SDS011;20748;42.632;23.198;2023-06-04T14:29:10;9.50;;;6.50;;
34505;SDS011;20748;42.632;23.198;2023-06-04T14:31:42;9.52;;;6.22;;
34505;SDS011;20748;42.632;23.198;2023-06-04T14:34:16;14.27;;;6.18;;
34505;SDS011;20748;42.632;23.198;2023-06-04T14:36:49;10.13;;;6.50;;
34505;SDS011;20748;42.632;23.198;2023-06-04T14:39:22;17.60;;;12.73;;
34505;SDS011;20748;42.632;23.198;2023-06-04T14:41:54;10.73;;;7.20;;
34505;SDS011;20748;42.632;23.198;2023-06-04T14:44:26;10.48;;;6.72;;
34505;SDS011;20748;42.632;23.198;2023-06-04T14:46:59;13.02;;;6.35;;
34505;SDS011;20748;42.632;23.198;2023-06-04T14:49:32;10.18;;;6.45;;
34505;SDS011;20748;42.632;23.198;2023-06-04T14:52:04;9.48;;;6.38;;
34505;SDS011;20748;42.632;23.198;2023-06-04T14:54:38;13.48;;;8.43;;
34505;SDS011;20748;42.632;23.198;2023-06-04T14:57:10;15.27;;;8.55;;
34505;SDS011;20748;42.632;23.198;2023-06-04T14:59:44;15.23;;;7.25;;
34505;SDS011;20748;42.632;23.198;2023-06-04T15:02:17;11.95;;;7.07;;
34505;SDS011;20748;42.632;23.198;2023-06-04T15:04:51;12.20;;;7.18;;
34505;SDS011;20748;42.632;23.198;2023-06-04T15:07:24;11.20;;;7.60;;